Date,TemperatureHighF,TemperatureAvgF,TemperatureLowF,DewpointHighF,DewpointAvgF,DewpointLowF,HumidityHigh,HumidityAvg,HumidityLow,PressureMaxIn,PressureMinIn,WindSpeedMaxMPH,WindSpeedAvgMPH,GustSpeedMaxMPH,PrecipitationSumIn
2013-1-1,19.4,5.6,-4.7,10.4,-1.1,-8.8,82,74,63,30.51,30.36,0,0,0,0.00
2013-1-2,23.5,16.6,10.4,16.3,10.5,0.8,92,77,65,30.51,30.39,0,0,0,0.00
2013-1-3,21.7,16.8,13.8,15.3,11.6,8.7,92,80,62,30.39,30.21,0,0,0,0.00
2013-1-4,23.4,14.5,6.8,13.6,9.8,3.0,92,82,60,30.33,30.24,0,0,0,0.00
2013-1-5,23.7,19.0,13.3,20.2,16.9,11.2,97,91,84,30.33,30.06,0,0,0,0.04
2013-1-6,29.3,22.9,17.1,23.0,20.5,16.4,98,91,71,30.06,29.98,0,0,0,0.04
2013-1-7,29.0,22.4,14.4,25.4,19.8,13.0,98,90,73,29.98,29.74,0,0,0,0.08
2013-1-8,28.6,22.1,10.6,28.1,21.4,9.7,98,97,93,30.01,29.65,0,0,0,0.39
2013-1-9,37.2,24.6,12.0,32.5,23.4,10.9,98,95,78,29.71,29.53,3,0,3,0.04
2013-1-10,34.9,22.1,3.4,25.4,14.1,-1.4,98,74,43,29.95,29.71,13,1,15,0.08
2013-1-11,27.2,10.8,-3.8,14.2,2.9,-10.6,90,71,46,30.15,29.95,0,0,0,0.08
2013-1-12,17.3,-0.5,-9.6,6.1,-9.5,-17.7,73,66,56,30.24,30.15,0,0,0,0.00
2013-1-13,15.1,4.7,-6.3,7.2,-5.9,-17.7,73,61,57,30.33,30.24,0,0,0,0.00
2013-1-14,26.3,13.9,4.3,12.8,6.3,-1.0,88,72,52,30.36,30.18,0,0,0,0.08
2013-1-15,23.2,7.1,-0.7,10.1,-0.3,-6.6,78,71,56,30.48,30.36,0,0,0,0.00
2013-1-16,19.6,11.3,7.2,14.0,5.1,-1.0,92,76,69,30.51,30.45,0,0,0,0.08
2013-1-17,19.8,15.1,10.6,14.1,11.5,8.7,92,86,66,30.48,30.24,0,0,0,0.00
2013-1-18,25.0,13.3,2.3,16.2,9.2,-3.0,97,84,62,30.27,30.15,0,0,0,0.08
2013-1-19,21.8,9.0,2.1,11.6,1.9,-5.4,85,73,59,30.36,30.27,0,0,0,0.00
2013-1-20,25.0,6.2,-3.1,14.4,-0.9,-10.4,85,72,61,30.42,30.30,0,0,0,0.00
2013-1-21,20.9,6.4,-3.8,12.3,-0.1,-9.4,89,74,68,30.30,30.18,0,0,0,0.08
2013-1-22,14.7,6.5,-3.1,8.9,0.0,-9.8,78,74,72,30.24,30.06,0,0,0,0.00
2013-1-23,24.8,17.5,9.7,22.0,15.0,6.7,95,90,78,30.06,29.86,0,0,0,0.08
2013-1-24,25.5,19.5,8.3,22.6,17.6,6.9,97,92,81,30.15,29.95,0,0,0,0.08
2013-1-25,33.6,21.1,10.2,23.5,17.1,7.2,97,86,54,30.06,29.89,6,0,7,0.08
2013-1-26,27.3,19.7,11.1,18.8,15.7,9.1,97,85,59,29.89,29.80,0,0,0,0.00
2013-1-27,27.2,20.9,10.2,23.9,18.4,8.4,98,90,75,29.92,29.86,0,0,0,0.08
2013-1-28,25.2,22.0,17.4,21.5,18.0,15.7,95,85,69,29.86,29.77,0,0,0,0.00
2013-1-29,32.9,25.0,13.8,30.4,22.3,12.7,98,90,67,30.06,29.80,9,0,9,0.08
2013-1-30,53.8,37.6,25.4,35.1,27.9,22.2,98,72,37,30.15,30.01,20,3,20,0.08
2013-1-31,42.3,28.6,20.5,29.9,25.3,19.9,98,89,57,30.15,30.06,6,1,7,0.00
2013-2-1,43.5,25.6,13.8,32.8,21.6,12.9,98,87,51,30.36,30.12,5,0,5,0.08
2013-2-2,38.0,20.9,12.9,27.9,17.8,11.8,98,89,60,30.36,30.15,0,0,0,0.00
2013-2-3,31.8,22.7,12.8,27.2,19.8,11.1,96,89,72,30.15,30.03,0,0,0,0.00
2013-2-4,41.2,30.1,25.9,29.8,26.9,23.8,98,89,57,30.03,29.86,6,0,6,0.00
2013-2-5,40.1,32.3,29.3,33.5,30.1,28.4,98,92,67,29.86,29.71,8,0,8,0.00
2013-2-6,37.8,32.6,29.9,31.5,29.2,26.2,98,88,64,29.92,29.80,6,0,6,0.00
2013-2-7,43.5,33.4,21.6,38.9,29.0,18.1,98,85,54,30.01,29.80,6,0,8,0.12
2013-2-8,40.5,23.8,12.8,21.5,16.5,10.0,94,76,43,30.09,30.01,0,0,0,0.00
2013-2-9,41.4,24.1,15.1,25.4,18.6,13.9,96,82,46,30.15,29.98,6,0,6,0.00
2013-2-10,43.2,22.8,11.5,25.4,17.8,9.7,98,83,47,30.18,30.06,6,1,7,0.00
2013-2-11,36.3,22.0,11.3,29.0,19.1,10.2,98,89,65,30.12,30.06,6,0,6,0.00
2013-2-12,37.4,28.3,20.9,30.3,26.0,20.4,98,92,68,30.18,30.01,5,0,6,0.00
2013-2-13,49.8,31.8,16.2,33.4,21.1,15.7,98,70,34,30.27,30.01,22,3,22,0.00
2013-2-14,45.2,30.9,21.0,27.8,23.4,16.4,95,75,48,30.45,30.27,8,1,8,0.00
2013-2-15,44.4,27.5,17.4,27.5,22.7,17.0,98,85,49,30.45,30.18,6,1,8,0.00
2013-2-16,43.4,29.7,19.6,31.8,25.0,19.1,98,84,54,30.18,29.86,11,1,13,0.00
2013-2-17,47.1,29.5,17.1,28.6,19.7,16.6,98,71,34,30.01,29.89,13,2,15,0.00
2013-2-18,34.7,26.4,17.1,27.4,21.8,15.2,97,84,55,30.01,29.71,8,0,8,0.00
2013-2-19,42.1,31.5,25.4,27.8,22.2,13.4,98,71,43,29.86,29.68,15,2,15,0.00
2013-2-20,38.7,24.5,11.9,19.7,13.7,7.2,90,65,39,29.92,29.83,6,1,6,0.00
2013-2-21,40.5,24.6,11.9,24.4,17.6,10.3,96,77,42,29.92,29.80,7,1,8,0.00
2013-2-22,39.6,29.0,20.1,34.0,26.0,18.2,98,89,71,29.86,29.44,16,1,16,0.04
2013-2-23,45.7,29.7,18.9,31.1,20.5,17.0,98,73,38,30.12,29.59,17,2,20,0.00
2013-2-24,39.6,29.6,22.3,27.7,22.4,18.8,92,76,47,30.15,29.89,5,0,5,0.00
2013-2-25,46.1,32.6,20.5,33.2,25.9,17.9,98,79,44,30.03,29.77,10,0,13,0.08
2013-2-26,44.4,30.0,17.1,26.9,21.3,14.9,97,73,39,30.18,30.03,10,1,10,0.00
2013-2-27,46.1,32.2,21.6,28.0,24.7,20.4,98,77,38,30.15,30.06,8,1,8,0.00
2013-2-28,38.1,33.0,26.3,34.4,30.3,24.1,98,90,65,30.21,30.12,5,0,5,0.08
2013-3-1,46.4,35.6,28.4,37.1,33.1,27.9,98,91,66,30.21,30.09,8,1,8,0.00
2013-3-2,49.3,35.4,25.4,37.9,29.2,15.4,98,81,39,30.12,29.77,22,2,22,0.00
2013-3-3,45.7,35.8,24.8,20.7,17.9,13.7,79,50,32,30.12,29.86,20,5,25,0.00
2013-3-4,42.5,32.9,24.6,27.4,22.6,19.0,84,68,41,30.18,29.98,10,1,10,0.00
2013-3-5,41.4,32.0,24.6,28.6,24.5,19.8,95,76,44,29.98,29.77,8,1,8,0.00
2013-3-6,40.5,34.2,30.9,34.7,31.6,28.1,98,91,72,29.77,29.56,5,0,5,0.08
2013-3-7,42.8,35.5,31.8,37.1,32.6,30.1,98,90,68,30.01,29.68,7,1,8,0.00
2013-3-8,48.6,34.1,24.3,33.1,27.3,23.1,98,80,40,30.09,29.92,9,2,9,0.00
2013-3-9,51.5,31.8,19.6,31.9,23.6,19.1,98,76,36,30.27,30.09,8,2,8,0.00
2013-3-10,51.5,36.4,27.0,29.2,25.9,21.0,90,69,38,30.27,30.12,17,3,17,0.00
2013-3-11,50.6,35.4,21.2,30.0,23.5,15.8,84,65,29,30.24,30.06,12,2,12,0.00
2013-3-12,48.2,36.9,32.2,37.7,32.0,28.6,98,84,50,30.09,29.86,6,0,6,0.00
2013-3-13,56.7,37.8,27.7,39.1,32.6,27.2,98,84,46,30.01,29.92,9,1,9,0.04
2013-3-14,57.2,41.6,34.2,45.3,34.5,27.1,98,79,37,30.01,29.86,18,2,19,0.04
2013-3-15,57.0,38.7,26.4,38.1,30.4,26.0,98,76,35,30.06,29.92,15,2,15,0.00
2013-3-16,52.7,38.5,28.6,37.5,27.3,18.1,98,68,37,29.98,29.59,16,3,16,0.00
2013-3-17,46.4,33.7,25.2,20.3,17.4,14.2,77,54,29,29.92,29.65,20,4,20,0.00
2013-3-18,46.2,32.5,21.2,30.9,19.7,14.2,93,61,35,30.09,29.89,19,2,19,0.04
2013-3-19,47.1,33.4,21.4,31.5,21.0,13.1,96,63,36,30.15,29.68,18,2,20,0.04
2013-3-20,46.2,36.1,29.5,37.3,33.2,29.0,98,90,64,29.74,29.39,10,1,13,1.34
2013-3-21,45.9,32.7,23.4,33.1,21.0,13.8,98,67,30,29.98,29.68,20,2,23,0.00
2013-3-22,45.7,30.9,18.5,21.5,17.2,13.7,91,60,29,30.21,29.98,15,2,15,0.00
2013-3-23,47.1,31.9,18.3,21.1,15.7,11.8,77,53,30,30.27,30.12,10,1,10,0.00
2013-3-24,48.6,31.9,17.4,22.8,18.0,13.1,85,60,33,30.24,30.06,16,2,16,0.00
2013-3-25,53.8,34.1,19.6,28.7,21.1,18.1,97,65,27,30.12,29.92,11,1,12,0.00
2013-3-26,59.4,37.8,21.0,30.3,24.3,19.5,97,65,27,29.98,29.83,13,2,13,0.00
2013-3-27,61.0,41.8,27.7,34.6,29.1,25.7,98,67,28,29.95,29.83,17,2,17,0.00
2013-3-28,64.2,43.1,28.8,36.6,32.1,28.1,98,70,33,30.03,29.92,17,2,17,0.00
2013-3-29,66.6,46.3,27.7,39.2,30.2,25.6,98,61,26,30.15,30.03,12,3,12,0.00
2013-3-30,69.1,45.5,26.6,37.3,30.1,25.0,98,62,23,30.21,30.03,10,1,13,0.00
2013-3-31,74.3,47.7,27.2,39.5,31.6,26.7,98,62,22,30.06,29.86,11,1,12,0.00
2013-4-1,77.6,52.9,29.0,41.5,32.9,28.5,98,55,21,29.95,29.83,16,4,17,0.00
2013-4-2,68.9,55.5,37.8,36.0,31.4,27.9,76,43,23,29.98,29.92,21,7,21,0.00
2013-4-3,69.1,52.3,32.9,40.3,32.2,28.2,85,50,26,30.03,29.89,13,3,13,0.00
2013-4-4,53.8,46.8,40.1,48.1,40.7,33.4,98,80,57,29.92,29.59,5,0,5,0.04
2013-4-5,63.5,49.8,41.6,47.8,41.0,35.7,98,75,38,29.71,29.65,11,2,11,0.04
2013-4-6,59.6,46.2,35.4,47.0,33.7,23.7,98,68,27,29.74,29.65,29,4,29,0.00
2013-4-7,48.0,39.7,32.9,39.4,31.8,24.5,98,75,48,29.71,29.50,11,2,13,0.39
2013-4-8,59.4,44.6,33.3,37.7,33.1,25.9,97,68,33,30.12,29.68,15,4,15,0.00
2013-4-9,56.0,44.1,31.5,40.2,34.1,29.4,98,72,40,30.21,30.06,13,2,14,0.00
2013-4-10,57.4,45.4,33.8,46.1,35.9,25.8,98,74,36,30.06,29.74,22,4,22,0.12
2013-4-11,57.8,42.1,26.8,34.0,25.3,20.0,98,58,26,30.03,29.98,24,4,24,0.00
2013-4-12,52.4,39.4,28.2,34.6,27.1,22.1,89,65,37,30.03,29.47,21,3,22,0.00
2013-4-13,50.9,41.0,29.0,34.8,21.3,14.7,98,48,31,29.80,29.47,23,7,25,0.00
2013-4-14,53.8,38.0,22.5,32.0,23.2,17.8,87,59,30,29.86,29.77,15,2,17,0.00
2013-4-15,48.6,38.7,34.4,36.7,33.8,25.8,98,84,45,30.09,29.83,17,3,17,0.08
2013-4-16,52.7,40.5,28.2,34.6,26.7,17.9,96,63,30,30.30,30.09,17,3,17,0.00
2013-4-17,57.6,40.6,22.3,30.6,24.6,21.6,98,59,28,30.33,30.21,15,3,16,0.00
2013-4-18,62.6,46.3,29.5,36.7,31.3,26.1,92,60,34,30.24,30.03,14,3,15,0.00
2013-4-19,64.8,48.7,33.8,40.8,33.6,29.6,98,61,34,30.03,29.89,18,4,20,0.00
2013-4-20,61.0,47.4,31.7,38.2,29.7,25.0,97,55,31,30.42,29.98,19,5,22,0.00
2013-4-21,49.1,38.0,29.5,36.9,30.0,24.8,93,74,43,32.81,30.42,14,3,15,0.04
2013-4-22,62.3,44.2,25.5,25.1,21.6,17.5,85,46,24,32.81,32.81,15,3,15,0.00
2013-4-23,64.2,43.4,27.2,28.7,24.9,19.4,86,53,25,32.81,19.52,11,2,11,0.00
2013-4-24,68.9,49.2,25.9,30.7,26.7,22.9,93,48,22,19.52,19.52,17,3,19,0.00
2013-4-25,72.3,56.5,35.1,36.2,31.3,24.6,70,40,25,19.52,19.52,23,5,23,0.00
2013-4-26,75.9,55.9,36.7,42.8,34.7,28.8,94,51,21,19.52,19.52,15,2,15,0.00
2013-4-27,68.2,52.8,33.5,38.1,32.2,28.3,96,52,23,28.11,19.52,20,6,23,0.00
2013-4-28,63.2,42.6,33.3,35.0,30.0,24.0,87,66,27,28.14,27.96,12,2,22,0.00
2013-4-29,51.6,42.1,34.4,36.2,26.2,16.8,91,56,30,28.08,27.82,17,3,23,0.00
2013-4-30,53.6,38.0,21.8,24.4,20.9,18.3,89,56,27,28.44,28.11,13,3,23,0.00
2013-5-1,64.1,45.7,22.8,30.0,23.5,17.6,83,47,24,28.61,28.47,10,2,23,0.00
2013-5-2,69.5,51.8,31.5,33.6,30.1,27.0,91,49,24,28.61,28.35,8,3,23,0.00
2013-5-3,75.2,60.1,40.7,37.2,34.0,29.3,78,43,22,28.44,28.29,11,4,23,0.00
2013-5-4,75.2,53.8,35.1,39.1,33.0,27.8,86,50,23,28.41,28.17,8,2,9,0.00
2013-5-5,82.4,63.3,34.0,41.0,35.1,30.8,92,42,19,28.20,27.96,11,2,11,0.00
2013-5-6,86.6,64.0,35.4,41.7,37.1,32.1,92,41,18,28.05,27.85,15,3,15,0.00
2013-5-7,89.3,68.1,42.3,49.0,39.8,32.3,81,40,18,28.02,27.91,13,3,15,0.00
2013-5-8,88.5,69.0,42.8,46.3,38.7,32.3,87,38,18,28.17,28.02,10,0,13,0.00
2013-5-9,90.3,68.4,39.0,40.1,34.5,29.1,76,33,15,28.26,28.08,0,0,0,0.00
2013-5-10,89.8,66.9,40.7,46.5,38.2,28.5,79,40,15,28.29,28.17,0,0,0,0.00
2013-5-11,86.0,67.5,48.2,48.7,41.5,36.7,72,43,19,28.26,28.11,0,0,0,0.00
2013-5-12,77.6,61.8,47.3,49.7,43.2,39.4,86,56,29,28.14,28.05,13,1,17,0.00
2013-5-13,68.7,47.5,31.8,49.0,36.4,31.3,98,70,32,28.26,27.96,19,4,22,0.04
2013-5-14,65.3,54.8,32.0,39.7,29.9,27.3,98,41,26,28.26,28.11,15,4,17,0.04
2013-5-15,70.7,59.5,32.4,46.8,38.3,28.2,90,49,27,28.20,27.99,13,4,14,0.00
2013-5-16,68.2,55.2,39.8,50.6,43.6,39.2,98,69,37,28.08,27.99,14,3,16,0.04
2013-5-17,70.7,58.6,39.8,49.2,42.3,37.9,98,57,32,28.08,27.96,16,5,17,0.00
2013-5-18,68.7,57.9,48.6,49.1,39.3,32.7,91,51,33,28.32,28.05,14,4,16,0.00
2013-5-19,74.1,61.3,41.2,40.4,36.2,32.3,78,41,26,28.38,28.26,17,6,19,0.00
2013-5-20,75.2,60.2,38.3,43.9,39.3,33.7,95,52,27,28.38,27.88,22,5,24,0.00
2013-5-21,51.3,45.8,39.6,49.8,44.6,38.7,98,96,73,27.96,27.76,11,2,15,0.59
2013-5-22,52.2,45.1,36.5,43.1,40.2,36.0,98,84,62,28.11,27.91,13,3,14,0.12
2013-5-23,60.6,47.5,36.9,44.5,39.5,35.0,98,77,41,28.14,28.08,15,2,20,0.04
2013-5-24,67.1,44.5,32.9,44.3,36.7,32.4,98,80,34,28.11,28.02,16,2,16,0.00
2013-5-25,65.5,50.9,36.7,46.3,38.1,34.7,98,67,36,28.11,28.05,15,3,17,0.00
2013-5-26,67.3,59.6,42.3,48.5,41.2,37.0,98,53,35,28.11,28.02,15,4,15,0.00
2013-5-27,59.2,54.2,43.7,48.9,44.8,37.1,95,72,50,28.02,27.91,20,3,22,0.00
2013-5-28,66.7,54.1,43.2,57.6,49.4,41.5,98,86,44,27.94,27.85,13,2,13,0.51
2013-5-29,60.4,52.2,42.4,51.7,46.9,41.6,98,83,52,27.96,27.82,12,1,13,0.08
2013-5-30,66.4,51.6,35.8,47.2,39.5,33.5,98,68,33,28.11,27.96,14,0,14,0.00
2013-5-31,71.2,54.8,37.6,42.7,39.6,34.3,93,61,27,28.35,28.29,0,0,0,0.00
2013-6-1,68.4,44.2,39.7,49.8,39.7,36.7,98,87,38,28.32,28.11,0,0,0,0.00
2013-6-2,72.0,59.7,44.2,45.5,39.7,35.9,86,51,31,28.14,28.02,0,0,0,0.00
2013-6-3,75.7,64.4,46.4,49.3,42.3,38.5,96,48,28,28.20,28.08,18,0,26,0.00
2013-6-4,82.4,66.8,43.2,51.0,45.0,40.5,95,50,25,28.26,28.11,15,3,16,0.00
2013-6-5,84.0,72.5,49.6,52.0,45.0,41.0,97,41,26,28.17,28.05,15,5,17,0.00
2013-6-6,86.9,76.4,61.5,49.2,42.6,37.8,54,32,20,28.14,28.02,13,4,15,0.00
2013-6-7,78.1,70.8,59.7,48.3,38.7,29.6,52,32,24,28.14,27.99,22,6,22,0.00
2013-6-8,81.3,62.9,43.5,42.4,36.7,29.4,72,41,21,28.17,28.05,17,4,23,0.00
2013-6-9,75.7,57.2,42.8,41.8,35.8,29.1,81,49,23,28.11,27.99,17,4,21,0.00
2013-6-10,79.2,60.1,44.4,44.2,34.9,30.5,76,41,22,28.05,27.85,13,3,16,0.00
2013-6-11,76.5,61.9,42.1,50.6,42.3,31.7,90,51,30,28.11,27.88,23,7,26,0.04
2013-6-12,72.1,47.0,36.7,42.3,35.9,32.8,94,71,26,28.17,28.08,20,2,20,0.00
2013-6-13,72.1,63.0,52.7,39.9,37.2,34.3,54,39,28,28.20,28.11,14,5,17,0.00
2013-6-14,74.5,56.0,41.7,43.7,37.2,33.9,82,53,28,28.23,28.11,15,4,18,0.00
2013-6-15,81.5,70.5,44.1,50.6,43.9,39.6,91,42,24,28.20,28.05,13,3,15,0.00
2013-6-16,86.7,72.4,51.8,52.7,45.4,39.8,91,41,22,28.17,28.05,17,4,22,0.00
2013-6-17,83.3,72.3,54.7,51.2,47.8,42.7,81,44,26,28.11,27.96,21,7,24,0.00
2013-6-18,72.7,63.8,53.6,52.8,48.9,44.8,93,60,40,28.02,27.99,17,5,20,0.00
2013-6-19,66.2,59.1,52.0,52.0,44.3,37.3,97,60,38,27.99,27.91,18,5,21,0.04
2013-6-20,60.4,56.7,54.1,41.1,38.0,36.1,57,50,45,27.99,27.91,16,6,16,0.00
2013-6-21,72.0,63.7,55.0,54.0,49.1,42.0,90,61,36,28.23,28.17,13,4,19,0.00
2013-6-22,77.2,55.0,43.3,57.8,48.7,42.8,98,83,36,28.20,28.02,15,1,15,0.04
2013-6-23,76.1,65.3,53.8,61.4,53.2,42.5,98,70,36,28.05,27.79,13,3,14,0.04
2013-6-24,66.2,59.4,54.7,60.7,56.7,54.1,98,91,71,27.85,27.73,9,1,9,0.47
2013-6-25,68.9,56.4,47.8,55.9,51.0,45.4,98,84,46,27.96,27.82,13,1,13,0.04
2013-6-26,74.8,58.7,48.2,56.7,51.0,46.4,98,79,42,28.20,27.96,12,2,13,0.00
2013-6-27,75.9,59.0,48.0,58.5,51.2,46.7,98,79,42,28.35,28.20,12,2,14,0.00
2013-6-28,88.3,71.6,57.4,58.3,55.9,52.2,94,63,34,28.38,28.23,15,3,17,0.00
2013-6-29,90.1,75.1,57.2,71.4,62.9,52.7,98,69,29,28.23,28.14,11,2,14,0.28
2013-6-30,93.4,71.5,54.3,61.9,56.3,48.7,98,69,22,28.23,28.11,13,2,15,0.00
2013-7-1,98.2,75.4,54.3,64.2,57.8,47.2,98,61,19,28.23,28.05,13,1,13,0.00
2013-7-2,101.7,69.1,55.9,64.8,56.3,44.4,98,74,16,28.14,28.02,16,1,21,0.00
2013-7-3,92.8,74.5,66.2,46.5,42.6,33.7,48,33,18,28.17,28.02,13,5,17,0.00
2013-7-4,85.5,69.4,63.9,40.2,32.2,26.9,38,25,19,28.08,27.94,22,6,23,0.00
2013-7-5,87.3,70.2,60.4,48.4,43.1,39.6,49,39,21,28.02,27.93,16,6,16,0.00
2013-7-6,88.9,75.0,61.9,54.0,45.6,39.3,75,38,20,28.05,27.93,12,4,14,0.00
2013-7-7,88.7,68.2,51.3,59.7,50.0,43.8,95,60,23,28.08,27.93,17,3,17,0.04
2013-7-8,88.7,70.9,50.7,58.7,49.6,40.7,98,57,20,28.20,28.05,16,3,18,0.00
2013-7-9,91.4,72.0,50.4,58.0,49.7,43.9,96,54,21,28.26,28.05,16,4,19,0.00
2013-7-10,93.0,73.1,50.2,56.5,46.2,35.8,95,48,17,28.11,27.91,18,3,19,0.00
2013-7-11,80.1,70.6,59.7,41.9,35.0,28.9,49,28,20,28.05,27.96,20,7,22,0.00
2013-7-12,78.3,65.4,55.6,40.6,34.2,31.4,47,32,22,28.14,28.02,13,5,15,0.00
2013-7-13,84.7,69.7,46.6,46.1,40.2,36.6,84,40,20,28.23,28.14,13,4,13,0.00
2013-7-14,90.5,82.1,51.8,51.1,41.0,32.2,94,26,17,28.23,28.02,13,5,17,0.00
2013-7-15,84.0,65.9,52.5,41.1,38.3,34.5,55,38,20,28.20,28.11,13,3,13,0.00
2013-7-16,93.9,68.9,42.1,52.7,43.5,38.1,96,47,16,28.20,27.99,14,2,14,0.00
2013-7-17,93.2,70.1,56.7,62.8,52.2,43.8,92,58,20,28.20,28.02,13,3,13,0.04
2013-7-18,95.0,69.7,49.5,56.3,48.8,42.5,94,55,20,28.29,28.14,13,2,15,0.00
2013-7-19,96.1,67.8,49.3,50.8,43.9,38.5,83,48,16,28.23,28.08,10,1,12,0.00
2013-7-20,97.3,78.2,53.8,46.2,40.3,33.5,56,29,13,28.11,27.94,16,4,21,0.00
2013-7-21,99.5,77.1,69.6,47.1,42.0,39.4,34,29,16,27.99,27.88,20,7,20,0.00
2013-7-22,96.4,76.6,68.7,44.6,41.5,39.2,34,29,16,28.08,27.93,17,6,18,0.00
2013-7-23,100.2,73.2,61.0,48.1,44.8,39.0,62,39,16,28.14,27.99,16,4,16,0.00
2013-7-24,101.5,72.7,56.7,47.8,41.9,36.8,59,36,12,28.14,27.99,15,2,15,0.00
2013-7-25,99.5,79.0,54.3,45.1,39.8,31.8,58,28,13,28.14,28.05,16,4,17,0.00
2013-7-26,96.1,65.6,48.9,43.9,36.0,29.0,63,36,14,28.20,28.08,15,2,19,0.00
2013-7-27,92.5,75.7,52.2,41.5,36.4,28.1,50,25,15,28.17,27.96,15,5,18,0.00
2013-7-28,93.0,72.2,58.8,56.3,43.9,37.8,83,41,17,28.05,27.96,17,5,19,0.00
2013-7-29,90.7,69.3,48.2,58.0,47.0,39.4,95,54,18,28.14,27.99,14,3,16,0.04
2013-7-30,93.6,71.5,50.5,56.5,47.5,39.9,95,50,17,28.23,28.14,13,2,14,0.00
2013-7-31,95.4,72.9,49.8,50.2,45.0,38.8,86,41,17,28.26,28.11,19,3,21,0.00
2013-8-1,91.9,69.1,56.3,60.9,50.9,39.7,89,56,19,28.14,27.99,17,2,17,0.31
2013-8-2,74.3,65.3,59.4,60.5,54.6,47.7,97,72,41,28.20,28.08,14,2,14,0.00
2013-8-3,87.6,69.3,53.1,59.3,53.5,47.3,98,63,29,28.23,28.11,15,3,15,0.00
2013-8-4,84.9,66.3,54.3,68.2,57.8,48.9,94,76,31,28.20,28.14,14,2,16,0.16
2013-8-5,93.9,67.7,49.3,61.3,52.6,43.8,98,68,19,28.17,27.99,13,2,13,0.00
2013-8-6,96.8,76.2,51.8,61.9,47.6,34.5,93,46,16,28.11,27.96,13,3,15,0.00
2013-8-7,97.9,80.2,52.7,52.1,44.0,38.5,71,32,16,28.08,27.96,11,4,13,0.00
2013-8-8,98.4,81.9,63.9,52.6,45.8,40.5,63,31,16,28.11,27.96,13,4,15,0.00
2013-8-9,100.0,64.9,52.9,58.6,49.5,42.0,87,64,16,28.08,27.94,16,1,19,0.00
2013-8-10,93.7,73.1,60.3,63.4,55.2,45.2,96,58,20,28.20,27.99,22,3,23,0.08
2013-8-11,90.3,73.1,58.6,65.0,54.9,45.5,96,59,28,28.23,28.02,22,4,23,0.20
2013-8-12,90.7,71.5,52.5,60.2,50.8,42.9,90,55,21,28.14,28.02,21,4,22,0.00
2013-8-13,91.2,68.4,52.7,60.2,51.6,44.1,90,62,20,28.20,28.08,17,3,20,0.00
2013-8-15,86.4,72.3,61.3,64.0,54.3,44.8,93,58,29,28.14,28.02,17,3,20,0.04
2013-8-16,91.2,69.1,48.4,57.2,49.8,44.8,94,58,22,28.17,28.05,11,2,12,0.00
2013-8-17,87.1,69.7,51.6,59.7,48.0,40.9,90,51,25,28.14,28.05,17,3,22,0.00
2013-8-18,90.0,70.1,48.0,50.4,44.5,41.3,83,45,20,28.20,28.08,14,3,15,0.00
2013-8-19,83.5,66.5,50.7,50.6,44.1,38.6,80,48,25,28.17,28.11,13,3,17,0.00
2013-8-20,86.7,66.7,45.5,44.8,39.5,33.4,85,43,19,28.20,28.11,14,4,17,0.00
2013-8-21,91.6,66.5,42.8,50.8,42.0,36.3,83,48,17,28.26,28.08,11,2,12,0.00
2013-8-22,94.6,69.3,44.2,55.5,46.1,40.5,91,52,17,28.14,27.91,11,2,13,0.00
2013-8-23,81.5,67.6,58.1,62.7,52.6,46.9,92,61,33,28.02,27.91,11,2,11,0.00
2013-8-24,83.8,68.2,48.9,55.0,46.1,37.4,85,49,23,27.99,27.88,22,5,22,0.00
2013-8-25,82.0,67.5,58.1,54.4,45.1,39.5,81,47,27,28.05,27.96,13,3,15,0.00
2013-8-26,73.8,63.1,55.9,58.1,53.4,47.3,96,73,42,28.08,27.96,15,4,21,0.16
2013-8-27,81.0,63.6,50.9,62.2,53.3,47.6,98,74,34,28.11,27.96,8,1,9,0.00
2013-8-28,82.8,64.2,53.1,59.4,54.0,47.8,95,73,32,28.08,27.96,16,2,16,0.00
2013-8-29,73.6,62.7,55.6,63.2,57.0,53.7,96,83,54,28.14,28.05,17,2,18,0.20
2013-8-30,76.6,63.1,50.2,63.3,48.3,39.4,98,65,30,28.23,28.14,13,3,15,0.00
2013-8-31,86.9,62.9,42.3,54.7,46.0,39.0,92,61,24,28.26,28.05,12,2,13,0.00
2013-9-1,94.5,67.0,45.3,59.6,47.4,40.8,94,60,17,28.11,27.88,14,2,17,0.00
2013-9-2,91.4,68.0,47.1,60.9,48.8,44.5,94,59,21,28.05,27.94,15,3,17,0.00
2013-9-3,89.8,69.2,53.2,61.4,52.6,47.3,93,62,25,28.14,28.02,19,4,21,0.00
2013-9-4,90.1,69.2,54.7,63.5,54.3,49.0,93,64,29,28.17,28.05,13,2,13,0.04
2013-9-5,89.8,71.0,57.9,67.0,57.1,49.6,93,67,28,28.17,27.99,13,2,16,0.28
2013-9-6,72.7,62.2,56.7,65.4,58.7,50.7,98,89,47,28.26,28.05,9,1,10,1.30
2013-9-7,75.4,62.2,54.0,62.7,54.7,47.5,96,80,38,28.26,28.17,13,2,13,0.24
2013-9-8,87.1,65.3,47.8,60.6,51.2,46.5,96,66,28,28.23,28.05,11,2,13,0.00
2013-9-9,89.1,66.9,49.5,60.5,51.0,45.2,94,63,24,28.14,28.05,9,2,11,0.00
2013-9-10,90.0,65.8,47.7,60.5,50.7,45.2,93,65,23,28.20,28.11,9,1,10,0.00
2013-9-11,93.4,61.5,47.8,62.3,50.8,44.9,95,75,20,28.26,28.14,10,1,10,0.00
2013-9-12,95.0,67.8,48.6,65.5,52.0,46.2,95,66,19,28.23,27.99,10,1,10,0.00
2013-9-13,96.8,69.6,49.8,66.0,52.6,44.8,95,65,17,28.05,27.88,10,1,11,0.00
2013-9-14,93.6,69.4,50.4,66.4,53.9,48.6,95,66,23,28.05,27.96,10,1,11,0.00
2013-9-15,90.0,69.3,53.1,65.9,53.2,46.3,94,64,24,27.99,27.82,20,2,24,0.12
2013-9-16,76.3,61.5,50.0,61.5,50.0,43.5,96,70,34,27.99,27.91,13,2,14,0.04
2013-9-17,71.6,56.9,43.9,56.3,45.6,39.8,95,69,41,27.96,27.85,10,1,13,0.00
2013-9-18,70.5,59.2,44.2,43.6,37.3,34.3,70,46,32,28.20,27.94,15,5,17,0.00
2013-9-19,72.3,51.8,35.4,48.0,37.7,31.8,90,63,31,28.26,28.08,20,2,20,0.00
2013-9-20,75.7,53.4,34.9,50.8,40.5,32.2,93,67,29,28.08,27.73,13,2,13,0.00
2013-9-21,72.5,58.7,46.6,57.0,42.5,34.8,93,60,31,27.79,27.73,13,2,15,0.00
2013-9-22,64.0,48.4,37.6,50.1,40.7,33.2,90,76,42,27.85,27.73,15,1,16,0.00
2013-9-23,64.4,48.9,37.8,53.8,41.8,36.2,96,79,44,28.02,27.82,12,1,12,0.00
2013-9-24,65.3,50.0,39.0,47.0,38.7,32.4,91,69,34,28.02,27.91,15,1,15,0.00
2013-9-25,65.8,52.1,37.4,42.3,33.8,27.8,91,55,26,28.08,27.94,20,4,20,0.00
2013-9-26,65.8,51.5,35.6,38.0,34.4,29.5,84,54,34,28.20,28.08,9,1,9,0.00
2013-9-27,59.2,45.5,31.5,44.8,36.8,28.0,94,74,44,28.20,27.96,12,1,13,0.00
2013-9-28,53.4,47.4,42.3,52.3,45.7,39.5,98,94,85,27.96,27.49,8,0,10,0.47
2013-9-29,60.6,50.1,41.7,53.6,42.7,37.3,98,79,45,27.67,27.43,15,3,16,0.12
2013-9-30,62.2,47.0,36.7,47.8,38.7,32.8,98,76,37,27.94,27.43,14,2,16,0.04
2013-10-1,61.2,41.4,29.5,43.6,32.8,27.7,96,75,36,28.20,27.94,13,1,13,0.00
2013-10-2,47.5,41.1,34.0,42.2,37.8,29.7,93,88,73,28.26,28.20,10,0,10,0.08
2013-10-3,40.1,40.1,40.1,38.2,38.2,38.2,93,93,93,28.26,28.26,0,0,0,0.00
2013-10-11,59.4,49.0,37.0,40.3,31.2,29.4,77,52,34,28.23,28.17,8,1,8,0.00
2013-10-12,59.9,42.0,35.8,43.0,33.7,30.5,90,74,36,28.29,28.14,6,0,6,0.20
2013-10-13,64.4,42.7,28.2,42.0,30.3,24.4,90,66,28,28.47,28.29,10,1,12,0.00
2013-10-14,65.7,39.5,24.1,39.4,27.7,20.8,90,68,26,28.56,28.44,9,1,10,0.00
2013-10-15,61.2,40.9,25.0,41.6,31.0,21.7,91,71,36,28.56,28.29,8,1,8,0.00
2013-10-16,68.7,46.8,32.4,46.0,35.2,27.2,92,68,30,28.35,28.20,9,1,9,0.00
2013-10-17,67.6,41.0,25.9,43.3,30.1,23.1,94,70,29,28.41,28.32,9,1,10,0.00
2013-10-18,66.6,40.2,25.3,42.3,29.8,22.7,92,71,33,28.41,28.29,9,0,9,0.00
2013-10-19,64.2,39.7,26.1,44.2,30.6,23.1,92,74,35,28.32,28.20,5,0,6,0.00
2013-10-20,74.7,44.8,27.5,49.5,34.8,25.2,94,73,31,28.32,28.20,6,0,7,0.00
2013-10-21,73.0,45.5,29.3,50.2,35.6,27.2,95,73,32,28.35,28.20,6,0,6,0.00
2013-10-22,70.3,43.5,28.2,48.9,34.7,25.9,94,75,35,28.35,28.23,8,1,8,0.00
2013-10-23,69.3,42.2,27.3,46.9,33.5,25.3,95,75,34,28.32,28.20,5,0,5,0.00
2013-10-24,67.8,41.1,27.0,46.1,31.9,24.4,93,74,34,28.29,28.17,4,0,5,0.00
2013-10-25,65.7,47.9,31.6,45.1,35.0,27.6,92,64,35,28.41,28.26,8,1,9,0.00
2013-10-26,64.6,39.1,25.7,43.3,30.8,23.5,94,76,35,28.44,28.17,6,0,6,0.00
2013-10-27,56.7,44.8,32.4,46.7,33.5,29.8,96,69,39,28.17,27.96,14,2,19,0.00
2013-10-28,57.6,47.9,39.6,30.6,23.3,18.5,49,38,28,28.20,28.05,11,4,12,0.00
2013-10-29,57.0,35.0,21.7,29.4,21.1,15.1,80,59,30,28.14,28.05,14,1,14,0.00
2013-10-30,56.7,33.5,20.7,33.3,23.5,15.9,88,69,35,28.17,28.11,8,1,9,0.00
2013-10-31,54.5,37.1,28.0,37.2,28.0,23.0,90,71,40,28.26,28.11,6,1,9,0.00
2013-11-1,51.3,38.3,26.8,40.1,29.1,21.1,88,71,46,28.35,28.05,6,0,6,0.00
2013-11-2,48.4,40.9,37.2,46.5,38.0,32.7,96,90,74,28.05,27.61,6,1,8,0.24
2013-11-3,49.6,37.0,25.2,40.1,28.0,19.0,96,73,36,28.14,27.88,14,2,15,0.00
2013-11-4,48.2,25.3,19.2,31.3,19.9,15.6,88,81,33,28.23,28.14,9,0,10,0.00
2013-11-5,39.0,33.7,26.1,33.2,28.7,22.5,88,82,73,28.32,28.20,9,2,9,0.04
2013-11-6,43.5,34.7,26.1,34.1,28.7,22.7,92,79,57,28.44,28.32,12,2,13,0.00
2013-11-7,36.9,33.6,32.9,35.3,30.8,29.2,94,89,85,28.35,27.88,4,0,4,0.00
2013-11-15,43.2,35.6,28.2,36.0,29.4,-99.9,96,80,61,29.52,27.64,10,-5,10,0.00
2013-11-16,48.9,34.1,25.2,38.9,25.4,19.3,97,74,37,29.64,29.25,11,2,11,0.00
2013-11-17,35.8,29.4,21.9,31.4,26.3,18.6,95,88,79,29.84,29.64,6,0,6,0.00
2013-11-18,36.7,31.1,23.7,36.2,30.4,22.8,98,97,94,29.87,29.58,3,0,3,0.08
2013-11-19,47.7,36.0,27.9,43.4,27.6,14.7,98,75,38,29.96,29.52,13,2,13,0.12
2013-11-20,37.4,24.5,12.6,17.9,7.8,4.1,77,50,30,30.49,29.96,11,1,11,0.00
2013-11-21,36.1,18.3,8.6,18.0,8.5,2.6,80,67,40,30.67,30.46,4,0,4,0.00
2013-11-22,36.3,19.8,11.3,21.1,11.0,5.2,84,69,43,30.76,30.64,4,0,4,0.00
2013-11-23,38.8,21.8,10.6,24.4,14.2,6.2,85,73,46,32.88,21.28,3,0,3,0.00
2013-11-24,37.6,24.7,15.8,27.3,18.6,12.4,88,78,58,19.60,19.60,3,0,3,0.00
2013-11-25,39.6,28.0,20.3,30.3,21.1,15.4,89,76,52,19.60,19.60,3,0,3,0.00
2013-11-26,39.4,25.1,17.4,30.5,20.4,13.8,89,82,64,19.60,19.60,0,0,0,0.00
2013-11-27,41.2,25.9,16.3,30.8,21.2,13.9,93,83,61,19.60,19.60,3,0,3,0.00
2013-11-28,41.2,25.3,14.9,32.7,20.9,12.2,91,84,64,19.60,19.60,2,0,2,0.00
2013-11-29,34.7,26.3,20.3,31.5,23.0,17.6,93,87,77,19.60,19.60,6,0,6,0.00
2013-11-30,34.9,31.1,28.2,31.7,28.3,25.7,94,89,82,19.60,19.60,5,0,6,0.00
2013-12-1,34.9,32.3,30.0,33.6,30.9,27.8,98,94,89,27.88,19.60,3,0,3,0.59
2013-12-2,38.1,27.5,20.5,36.8,22.9,7.0,98,85,51,28.17,27.70,13,2,17,0.00
2013-12-3,28.8,21.6,14.9,8.4,5.2,2.6,60,49,41,28.41,28.17,15,7,18,0.00
2013-12-4,24.8,7.5,-1.8,8.6,-4.4,-13.3,73,58,47,28.44,28.38,8,0,8,0.00
2013-12-5,21.6,4.5,-3.1,9.5,-7.3,-14.5,76,57,47,28.41,28.32,3,0,4,0.00
2013-12-6,23.0,7.7,-2.9,9.3,-4.7,-14.4,77,56,46,28.41,28.32,11,0,11,0.00
2013-12-7,19.6,5.1,-5.4,0.9,-9.9,-21.7,56,49,39,28.41,28.32,13,3,18,0.00
2013-12-8,21.9,6.5,-6.3,4.2,-9.2,-22.5,62,48,42,28.53,28.41,4,0,4,0.00
2013-12-9,21.4,5.9,-3.1,5.6,-7.3,-16.0,64,54,48,28.53,28.44,4,0,5,0.00
2013-12-10,23.4,9.0,2.1,8.6,-0.5,-6.3,67,65,52,28.53,28.47,4,0,4,0.00
2013-12-11,22.1,14.7,0.5,16.1,8.1,-7.9,83,75,67,28.53,28.41,5,0,6,0.00
2013-12-12,26.6,19.4,8.1,21.0,14.7,3.5,87,82,72,28.41,28.20,3,0,4,0.00
2013-12-13,34.7,19.8,11.3,24.4,14.4,8.4,88,80,56,28.50,28.23,3,0,4,0.00
2013-12-14,34.9,24.5,18.1,27.9,20.5,14.7,91,85,65,28.50,28.35,6,0,6,0.00
2013-12-15,37.0,29.5,25.3,32.4,27.1,22.8,98,91,78,28.38,28.26,8,1,9,0.00
2013-12-16,31.6,26.3,23.4,31.1,25.8,22.9,98,98,95,28.47,28.38,4,0,5,0.00
2013-12-17,30.0,28.6,25.3,29.5,28.1,24.6,98,98,97,28.29,28.05,4,0,5,0.00
2013-12-18,36.3,29.9,24.4,31.0,22.2,6.8,98,77,40,28.23,27.96,14,2,21,0.00
2013-12-19,30.7,23.4,12.9,7.9,5.5,3.0,67,46,36,28.35,28.17,13,3,16,0.00
2013-12-20,24.3,16.6,10.2,18.4,10.5,0.8,85,77,65,28.17,27.76,4,0,4,0.00
2013-12-21,28.9,16.3,6.1,20.7,11.5,2.5,86,81,65,28.20,27.91,3,0,3,0.00
2013-12-22,34.5,22.2,12.2,27.8,18.5,8.6,90,86,71,28.35,28.20,4,0,4,0.04
2013-12-23,30.4,19.9,10.4,28.6,18.0,8.8,95,92,89,28.44,28.14,5,0,5,0.04
2013-12-24,33.1,14.8,5.7,28.2,12.1,4.0,93,89,77,28.64,28.44,0,0,0,0.00
2013-12-25,29.8,16.4,4.3,24.7,13.2,1.5,91,87,77,28.64,28.50,0,0,0,0.00
2013-12-26,35.1,21.5,11.7,28.4,18.5,8.9,93,88,72,28.50,28.38,3,0,3,0.00
2013-12-27,29.1,19.7,9.1,27.6,18.0,6.6,98,93,89,28.38,28.17,4,0,5,0.00
2013-12-28,30.6,20.8,12.6,26.9,19.1,11.6,98,93,83,28.56,28.35,3,0,3,0.04
2013-12-29,28.4,20.1,12.6,26.4,18.4,10.7,96,93,91,28.50,28.32,0,0,2,0.00
2013-12-30,29.1,24.9,21.9,26.0,23.0,20.7,97,92,80,28.41,28.20,4,0,4,0.00
2013-12-31,36.0,24.0,11.3,29.7,21.5,8.7,96,90,74,28.44,28.20,5,0,5,0.00
2014-1-1,34.3,21.6,9.9,29.0,18.3,7.3,91,87,77,28.50,28.44,4,0,4,0.00
2014-1-2,32.9,27.2,20.3,30.7,25.4,18.1,96,93,90,28.44,27.91,4,0,4,0.00